Home > Products > Valid Products > TAF

000
FTUS42 KCHS 201100
TAFSAV
TAF
KSAV 201136Z 2012/2112 03004KT P6SM -RA SCT015 OVC060
      TEMPO 2014/2017 6SM -RA SCT007 OVC018
     FM201700 36005KT P6SM SCT008 OVC018
     FM210800 02005KT 3SM BR BKN005 OVC010=



000
FTUS42 KCHS 201100
TAFCHS
TAF
KCHS 201136Z 2012/2112 04006KT P6SM -RA SCT030 OVC060
      TEMPO 2015/2018 5SM -RA BR SCT007 BKN025
     FM201800 02008KT P6SM -RA SCT009 BKN018 OVC060
     FM202100 01008KT 6SM BR SCT005 OVC010
     FM210600 02007KT 4SM BR BKN005 OVC010=



000
FTUS42 KCHS 201000 AAA
TAFSAV
TAF AMD
KSAV 201008Z 2010/2106 VRB03KT 5SM -RA BR SCT035 BKN070
     FM201300 01004KT 6SM -RA BR SCT015 OVC050
     FM201600 01005KT P6SM SCT020 BKN035
     FM210200 02005KT P6SM BKN007 OVC040=



000
FTUS42 KCHS 200500
TAFSAV
TAF
KSAV 200540Z 2006/2106 00000KT P6SM SCT080 BKN120
     FM200800 VRB03KT P6SM -RA SCT035 BKN070
     FM201300 01004KT 6SM -RA BR SCT015 OVC050
     FM201600 01005KT P6SM SCT020 BKN035
     FM210200 02005KT P6SM BKN007 OVC040=



000
FTUS42 KCHS 200500
TAFCHS
TAF
KCHS 200540Z 2006/2106 VRB03KT P6SM SCT090 OVC130
      TEMPO 2009/2013 -RA SCT025 OVC100
     FM201300 02007KT 4SM -RA BR SCT015 OVC060
     FM201700 02008KT P6SM FEW009 OVC015
     FM210000 02006KT P6SM BKN007 OVC040=



000
FTUS42 KCHS 192300
TAFSAV
TAF
KSAV 192322Z 2000/2024 00000KT P6SM SCT080 BKN120
     FM200900 VRB03KT P6SM -RA SCT035 BKN070
     FM201300 01006KT 6SM -RA BR SCT008 OVC020
     FM201600 36004KT P6SM SCT020 BKN045=



000
FTUS42 KCHS 192300
TAFCHS
TAF
KCHS 192322Z 2000/2024 VRB03KT P6SM SCT100 BKN200
     FM201000 03005KT P6SM -RA SCT025 OVC080
     FM201300 02007KT 4SM -RA BR SCT007 OVC012
     FM201700 01008KT P6SM OVC012=



000
FTUS42 KCHS 191700
TAFSAV
TAF
KSAV 191731Z 1918/2018 VRB04KT P6SM SCT080 BKN150
     FM200600 VRB03KT P6SM -RA SCT035 BKN070
     FM201300 01006KT 6SM -RA BR SCT009 OVC020=



000
FTUS42 KCHS 191700
TAFCHS
TAF
KCHS 191731Z 1918/2018 VRB04KT P6SM SCT120 BKN200
     FM200900 03005KT P6SM -RA SCT025 BKN080
     FM201400 02007KT 6SM -RA BR SCT007 OVC015=



000
FTUS42 KCHS 191100
TAFSAV
TAF
KSAV 191133Z 1912/2012 34005KT P6SM SCT080 BKN250
     FM200600 VRB03KT P6SM -RA SCT035 BKN070=



000
FTUS42 KCHS 191100
TAFCHS
TAF
KCHS 191133Z 1912/2012 04005KT P6SM BKN250
     FM200700 04004KT P6SM -RA SCT025 BKN080=



000
FTUS42 KCHS 190500
TAFSAV
TAF
KSAV 190523Z 1906/2006 VRB03KT P6SM SCT120 BKN250=



000
FTUS42 KCHS 190500
TAFCHS
TAF
KCHS 190523Z 1906/2006 VRB03KT P6SM SCT120 BKN250=



000
FTUS42 KCHS 182300
TAFCHS
TAF
KCHS 182320Z 1900/1924 VRB03KT P6SM SCT250=



000
FTUS42 KCHS 182300
TAFSAV
TAF
KSAV 182320Z 1900/1924 VRB03KT P6SM SCT250=



000
FTUS42 KCHS 181700
TAFCHS
TAF
KCHS 181720Z 1818/1918 VRB03KT P6SM SCT250=



000
FTUS42 KCHS 181700
TAFSAV
TAF
KSAV 181720Z 1818/1918 VRB03KT P6SM SCT250=



000
FTUS42 KCHS 181600 AAA
TAFSAV
TAF AMD
KSAV 181628Z 1816/1912 VRB03KT P6SM BKN250
      TEMPO 1816/1818 6SM FU FEW008=



000
FTUS42 KCHS 181100
TAFSAV
TAF
KSAV 181124Z 1812/1912 VRB03KT P6SM BKN250=



000
FTUS42 KCHS 181100
TAFCHS
TAF
KCHS 181124Z 1812/1912 VRB03KT P6SM BKN250=



000
FTUS42 KCHS 180500
TAFCHS
TAF
KCHS 180524Z 1806/1906 VRB03KT P6SM SCT250=



000
FTUS42 KCHS 180500
TAFSAV
TAF
KSAV 180524Z 1806/1906 VRB03KT P6SM SCT250=



000
FTUS42 KCHS 172300
TAFSAV
TAF
KSAV 172320Z 1800/1824 VRB03KT P6SM SCT250=



000
FTUS42 KCHS 172300
TAFCHS
TAF
KCHS 172320Z 1800/1824 VRB03KT P6SM SCT250=



000
FTUS42 KCHS 171700
TAFSAV
TAF
KSAV 171720Z 1718/1818 VRB05KT P6SM SCT250=



000
FTUS42 KCHS 171700
TAFCHS
TAF
KCHS 171720Z 1718/1818 VRB05KT P6SM SCT250=



    US Dept of Commerce
    National Oceanic and Atmospheric Administration
    National Weather Service
    1325 East West Highway
    Silver Spring, MD 20910
    Page Author: NWS Internet Services Team
Disclaimer
Information Quality
Credits
Glossary
Privacy Policy
Freedom of Information Act (FOIA)
About Us
Career Opportunities